Time;durP1;ratioP1;P1;durP2;ratioP2;P2;SDS_P1;SDS_P2;PMS_P1;PMS_P2;Temp;Humidity;BMP_temperature;BMP_pressure;BME280_temperature;BME280_humidity;BME280_pressure;Samples;Min_cycle;Max_cycle;Signal;HPM_P1;HPM_P2
2021/10/14 00:01:43;;;;;;;18.20;3.83;;;;;;;;;;5031893;28;20030;-53
2021/10/14 00:04:10;;;;;;;22.27;4.13;;;;;;;;;;5004284;28;20063;-47
2021/10/14 00:06:37;;;;;;;14.65;3.70;;;;;;;;;;5031061;28;20109;-45
2021/10/14 00:09:04;;;;;;;24.38;4.47;;;;;;;;;;5028897;28;20056;-51
2021/10/14 00:11:31;;;;;;;23.60;4.03;;;;;;;;;;5030277;28;20037;-50
2021/10/14 00:13:58;;;;;;;25.27;4.60;;;;;;;;;;5030039;28;20029;-43
2021/10/14 00:16:25;;;;;;;22.67;3.90;;;;;;;;;;5029689;28;20047;-45
2021/10/14 00:18:52;;;;;;;18.98;3.85;;;;;;;;;;5030010;28;20064;-43
2021/10/14 00:21:19;;;;;;;13.18;3.58;;;;;;;;;;5031008;28;20397;-57
2021/10/14 00:23:46;;;;;;;20.73;5.80;;;;;;;;;;5031677;28;20078;-46
2021/10/14 00:26:13;;;;;;;15.73;4.60;;;;;;;;;;5030502;28;20045;-46
2021/10/14 00:28:40;;;;;;;17.60;3.78;;;;;;;;;;5029943;28;20488;-50
2021/10/14 00:31:07;;;;;;;18.38;4.10;;;;;;;;;;5028997;28;20025;-46
2021/10/14 00:33:34;;;;;;;25.40;4.13;;;;;;;;;;5028655;28;20113;-48
2021/10/14 00:36:01;;;;;;;22.30;4.13;;;;;;;;;;5029991;28;20485;-44
2021/10/14 00:38:28;;;;;;;23.02;4.20;;;;;;;;;;5029337;28;20428;-42
2021/10/14 00:40:55;;;;;;;28.60;5.07;;;;;;;;;;5029652;28;20058;-43
2021/10/14 00:43:22;;;;;;;15.85;4.40;;;;;;;;;;5028333;28;20033;-47
2021/10/14 00:45:49;;;;;;;28.95;4.90;;;;;;;;;;5028440;28;20032;-44
2021/10/14 00:48:16;;;;;;;23.38;5.20;;;;;;;;;;5027376;28;20041;-48
2021/10/14 00:50:44;;;;;;;22.23;5.45;;;;;;;;;;5021480;28;20825;-44
2021/10/14 00:53:11;;;;;;;28.30;5.13;;;;;;;;;;5019866;28;20075;-45
2021/10/14 00:55:38;;;;;;;22.63;4.30;;;;;;;;;;5024431;28;20018;-46
2021/10/14 00:58:05;;;;;;;23.90;5.57;;;;;;;;;;5023279;28;20365;-46
2021/10/14 01:00:32;;;;;;;23.50;4.93;;;;;;;;;;5022647;28;20022;-48
2021/10/14 01:02:59;;;;;;;21.48;4.95;;;;;;;;;;5021732;28;20392;-49
2021/10/14 01:05:26;;;;;;;23.08;5.03;;;;;;;;;;5023602;28;20836;-43
2021/10/14 01:07:53;;;;;;;25.98;5.28;;;;;;;;;;5008533;28;20489;-52
2021/10/14 01:10:20;;;;;;;28.85;6.05;;;;;;;;;;5022339;28;20140;-43
2021/10/14 01:12:49;;;;;;;30.83;6.13;;;;;;;;;;5023979;28;20037;-42
2021/10/14 01:15:19;;;;;;;40.80;8.38;;;;;;;;;;5022107;28;20022;-46
2021/10/14 01:17:46;;;;;;;42.22;7.75;;;;;;;;;;5005658;28;20128;-44
2021/10/14 01:20:13;;;;;;;33.45;8.10;;;;;;;;;;5020776;28;20025;-45
2021/10/14 01:22:40;;;;;;;60.92;14.65;;;;;;;;;;5022764;28;20021;-44
2021/10/14 01:25:08;;;;;;;50.55;13.00;;;;;;;;;;5025025;28;20033;-42
2021/10/14 01:27:35;;;;;;;96.57;23.10;;;;;;;;;;5024812;28;20037;-43
2021/10/14 01:30:02;;;;;;;71.18;16.15;;;;;;;;;;5025318;28;20461;-44
2021/10/14 01:32:29;;;;;;;72.55;18.67;;;;;;;;;;5025766;28;20033;-44
2021/10/14 01:34:56;;;;;;;57.15;12.45;;;;;;;;;;5022320;28;20049;-45
2021/10/14 01:37:23;;;;;;;63.53;16.52;;;;;;;;;;5025702;28;20037;-43
2021/10/14 01:39:50;;;;;;;64.22;16.95;;;;;;;;;;5019878;28;20024;-45
2021/10/14 01:42:17;;;;;;;75.55;18.23;;;;;;;;;;5024874;28;20485;-43
2021/10/14 01:44:44;;;;;;;104.85;23.08;;;;;;;;;;5022616;28;20090;-44
2021/10/14 01:47:12;;;;;;;94.47;22.67;;;;;;;;;;5026321;28;20048;-52
2021/10/14 01:49:38;;;;;;;114.38;29.40;;;;;;;;;;5026688;28;20030;-47
2021/10/14 01:52:06;;;;;;;93.40;23.70;;;;;;;;;;5020853;28;20025;-49
2021/10/14 01:54:33;;;;;;;132.45;29.23;;;;;;;;;;5024893;28;20029;-47
2021/10/14 01:57:00;;;;;;;124.25;29.38;;;;;;;;;;5019203;28;20033;-46
2021/10/14 01:59:27;;;;;;;96.70;25.80;;;;;;;;;;5026309;28;20018;-45
2021/10/14 02:01:54;;;;;;;97.88;23.55;;;;;;;;;;5027759;28;20044;-48
2021/10/14 02:04:21;;;;;;;93.45;23.33;;;;;;;;;;5028231;28;20556;-50
2021/10/14 02:06:48;;;;;;;94.07;25.25;;;;;;;;;;5028965;28;20049;-49
2021/10/14 02:09:15;;;;;;;107.72;26.27;;;;;;;;;;5025188;28;20060;-54
2021/10/14 02:11:42;;;;;;;99.72;23.85;;;;;;;;;;5028403;28;20021;-50
2021/10/14 02:14:09;;;;;;;85.20;23.20;;;;;;;;;;5025023;28;20021;-46
2021/10/14 02:16:36;;;;;;;89.03;23.13;;;;;;;;;;5030843;28;20032;-48
2021/10/14 02:19:03;;;;;;;82.57;22.83;;;;;;;;;;5031726;28;20144;-49
2021/10/14 02:21:30;;;;;;;102.25;25.55;;;;;;;;;;5023671;28;20037;-49
2021/10/14 02:23:57;;;;;;;102.57;23.35;;;;;;;;;;5025627;28;20032;-50
2021/10/14 02:26:24;;;;;;;103.22;26.85;;;;;;;;;;5026718;28;20526;-50
2021/10/14 02:28:51;;;;;;;96.32;25.23;;;;;;;;;;5029535;28;20028;-49
2021/10/14 02:31:18;;;;;;;84.10;23.05;;;;;;;;;;5025922;28;20694;-49
2021/10/14 02:33:45;;;;;;;76.65;22.00;;;;;;;;;;5025729;28;20021;-54
2021/10/14 02:36:12;;;;;;;81.65;22.83;;;;;;;;;;5026198;28;20032;-47
2021/10/14 02:38:39;;;;;;;81.30;22.75;;;;;;;;;;5020902;28;20032;-49
2021/10/14 02:41:06;;;;;;;83.05;23.58;;;;;;;;;;5024838;28;20053;-42
2021/10/14 02:43:33;;;;;;;77.03;21.73;;;;;;;;;;5026113;28;20080;-42
2021/10/14 02:46:00;;;;;;;75.78;21.63;;;;;;;;;;5026228;28;20010;-43
2021/10/14 02:48:27;;;;;;;79.88;21.15;;;;;;;;;;5026889;28;20053;-45
2021/10/14 02:50:54;;;;;;;71.45;19.95;;;;;;;;;;5027220;28;20025;-43
2021/10/14 02:53:21;;;;;;;72.85;21.60;;;;;;;;;;5023299;28;20032;-45
2021/10/14 02:55:48;;;;;;;79.78;21.67;;;;;;;;;;5008751;28;20037;-56
2021/10/14 02:58:15;;;;;;;72.50;21.38;;;;;;;;;;5023809;28;20053;-44
2021/10/14 03:00:42;;;;;;;62.90;19.85;;;;;;;;;;5025376;28;20071;-50
2021/10/14 03:03:09;;;;;;;63.75;19.83;;;;;;;;;;5027454;28;20116;-46
2021/10/14 03:05:36;;;;;;;64.38;20.08;;;;;;;;;;5022885;28;20019;-49
2021/10/14 03:08:03;;;;;;;64.65;18.63;;;;;;;;;;5022086;28;20024;-47
2021/10/14 03:10:30;;;;;;;67.20;19.50;;;;;;;;;;5024814;28;20065;-48
2021/10/14 03:12:57;;;;;;;63.60;18.30;;;;;;;;;;5025307;28;20490;-45
2021/10/14 03:15:24;;;;;;;63.35;18.98;;;;;;;;;;5023288;28;20260;-44
2021/10/14 03:17:52;;;;;;;60.05;17.85;;;;;;;;;;5028407;28;20430;-45
2021/10/14 03:20:19;;;;;;;54.85;17.00;;;;;;;;;;5030605;28;20021;-47
2021/10/14 03:22:46;;;;;;;55.92;18.83;;;;;;;;;;5030382;28;20412;-45
2021/10/14 03:25:13;;;;;;;54.38;17.83;;;;;;;;;;5030675;28;20416;-45
2021/10/14 03:27:40;;;;;;;54.80;16.88;;;;;;;;;;5031040;28;20018;-46
2021/10/14 03:30:07;;;;;;;53.40;16.52;;;;;;;;;;5030331;28;20112;-51
2021/10/14 03:32:37;;;;;;;51.03;17.08;;;;;;;;;;5030903;28;20029;-48
2021/10/14 03:35:04;;;;;;;44.40;16.13;;;;;;;;;;5031938;28;20030;-44
2021/10/14 03:37:31;;;;;;;53.15;16.73;;;;;;;;;;5031917;28;20037;-46
2021/10/14 03:39:58;;;;;;;49.35;16.50;;;;;;;;;;5032463;28;20009;-43
2021/10/14 03:42:25;;;;;;;49.65;16.02;;;;;;;;;;5031624;28;20079;-50
2021/10/14 03:44:52;;;;;;;44.72;15.52;;;;;;;;;;5032327;28;20373;-56
2021/10/14 03:47:20;;;;;;;48.42;16.45;;;;;;;;;;5031033;28;20080;-44
2021/10/14 03:49:47;;;;;;;48.50;16.30;;;;;;;;;;5032084;28;20048;-48
2021/10/14 03:52:14;;;;;;;44.83;15.18;;;;;;;;;;5013917;28;20096;-46
2021/10/14 03:54:41;;;;;;;48.28;15.18;;;;;;;;;;5014551;28;20476;-48
2021/10/14 03:57:08;;;;;;;40.95;14.52;;;;;;;;;;5032077;28;20032;-48
2021/10/14 03:59:35;;;;;;;43.03;15.10;;;;;;;;;;5031695;28;20113;-44
2021/10/14 04:02:02;;;;;;;45.20;14.95;;;;;;;;;;5031715;28;20566;-49
2021/10/14 04:04:29;;;;;;;38.90;13.95;;;;;;;;;;5031657;28;20021;-43
2021/10/14 04:06:56;;;;;;;40.95;14.52;;;;;;;;;;5031837;28;20018;-47
2021/10/14 04:09:23;;;;;;;38.25;13.43;;;;;;;;;;5031274;28;20059;-45
2021/10/14 04:11:50;;;;;;;41.25;14.32;;;;;;;;;;5031724;28;20017;-49
2021/10/14 04:14:17;;;;;;;40.60;15.27;;;;;;;;;;5031675;28;20026;-46
2021/10/14 04:16:45;;;;;;;42.50;14.35;;;;;;;;;;5014053;28;20033;-49
2021/10/14 04:19:12;;;;;;;33.15;12.68;;;;;;;;;;5031694;28;20044;-46
2021/10/14 04:21:39;;;;;;;41.55;14.30;;;;;;;;;;5029904;28;20396;-45
2021/10/14 04:24:06;;;;;;;39.28;14.00;;;;;;;;;;5031940;28;20025;-49
2021/10/14 04:26:33;;;;;;;41.05;12.57;;;;;;;;;;5031003;28;20025;-44
2021/10/14 04:29:00;;;;;;;32.67;12.88;;;;;;;;;;5031735;28;20014;-47
2021/10/14 04:31:28;;;;;;;37.78;12.40;;;;;;;;;;5031075;28;20022;-46
2021/10/14 04:33:55;;;;;;;81.85;16.02;;;;;;;;;;5031674;28;20021;-45
2021/10/14 04:36:22;;;;;;;43.22;13.90;;;;;;;;;;5031063;28;20112;-47
2021/10/14 04:38:49;;;;;;;48.10;12.68;;;;;;;;;;5031272;28;20108;-47
2021/10/14 04:41:16;;;;;;;38.35;12.98;;;;;;;;;;5031379;28;20039;-48
2021/10/14 04:43:43;;;;;;;36.92;13.15;;;;;;;;;;5031176;28;20044;-45
2021/10/14 04:46:10;;;;;;;38.22;11.70;;;;;;;;;;5013552;28;20435;-43
2021/10/14 04:48:37;;;;;;;34.00;11.95;;;;;;;;;;5031002;28;20021;-43
2021/10/14 04:51:04;;;;;;;36.25;12.75;;;;;;;;;;5031921;28;20009;-45
2021/10/14 04:53:31;;;;;;;30.50;11.93;;;;;;;;;;5030350;28;20075;-43
2021/10/14 04:55:59;;;;;;;33.40;12.23;;;;;;;;;;5032149;28;20021;-43
2021/10/14 04:58:26;;;;;;;31.63;12.20;;;;;;;;;;5031555;28;20034;-45
2021/10/14 05:00:53;;;;;;;31.15;11.82;;;;;;;;;;5031628;28;20362;-50
2021/10/14 05:03:20;;;;;;;31.10;11.73;;;;;;;;;;5031383;28;20469;-50
2021/10/14 05:05:48;;;;;;;30.73;11.88;;;;;;;;;;5031935;28;20381;-50
2021/10/14 05:08:15;;;;;;;34.42;11.95;;;;;;;;;;5031568;28;20029;-45
2021/10/14 05:10:42;;;;;;;31.30;10.98;;;;;;;;;;5031663;28;20481;-46
2021/10/14 05:13:10;;;;;;;32.33;12.15;;;;;;;;;;5031171;28;20370;-49
2021/10/14 05:15:40;;;;;;;31.80;12.85;;;;;;;;;;5031641;28;20099;-50
2021/10/14 05:18:08;;;;;;;26.88;10.68;;;;;;;;;;5031309;28;20029;-47
2021/10/14 05:20:35;;;;;;;30.30;11.15;;;;;;;;;;5031487;28;20021;-44
2021/10/14 05:23:02;;;;;;;29.92;10.13;;;;;;;;;;5031509;28;20018;-47
2021/10/14 05:25:29;;;;;;;30.95;11.15;;;;;;;;;;5031628;28;20014;-43
2021/10/14 05:27:57;;;;;;;27.35;9.95;;;;;;;;;;5031333;28;20436;-44
2021/10/14 05:30:24;;;;;;;31.65;10.57;;;;;;;;;;5031091;28;20446;-44
2021/10/14 05:32:51;;;;;;;30.23;11.30;;;;;;;;;;5032098;28;20029;-44
2021/10/14 05:35:18;;;;;;;25.40;9.85;;;;;;;;;;5035222;28;20425;-42
2021/10/14 05:37:45;;;;;;;27.27;10.43;;;;;;;;;;5035137;28;20037;-43
2021/10/14 05:40:12;;;;;;;25.20;10.13;;;;;;;;;;5034833;28;20445;-43
2021/10/14 05:42:39;;;;;;;27.10;10.13;;;;;;;;;;5034305;28;20451;-44
2021/10/14 05:45:07;;;;;;;28.10;10.90;;;;;;;;;;5017460;28;20028;-45
2021/10/14 05:47:34;;;;;;;25.17;9.68;;;;;;;;;;5035166;28;20044;-50
2021/10/14 05:50:02;;;;;;;25.73;10.32;;;;;;;;;;5034502;28;20389;-49
2021/10/14 05:52:29;;;;;;;24.80;9.63;;;;;;;;;;5035052;28;20053;-49
2021/10/14 05:54:56;;;;;;;23.17;9.40;;;;;;;;;;5033887;28;20064;-45
2021/10/14 05:57:23;;;;;;;24.15;9.68;;;;;;;;;;5034583;28;20022;-46
2021/10/14 05:59:50;;;;;;;27.17;9.95;;;;;;;;;;5034107;28;20381;-43
2021/10/14 06:02:17;;;;;;;22.27;9.43;;;;;;;;;;5034473;28;20431;-44
2021/10/14 06:04:44;;;;;;;22.63;9.73;;;;;;;;;;5033192;28;20060;-44
2021/10/14 06:07:11;;;;;;;23.65;9.25;;;;;;;;;;5034475;28;20423;-42
2021/10/14 06:09:40;;;;;;;27.50;9.65;;;;;;;;;;5032393;28;20076;-47
2021/10/14 06:12:07;;;;;;;22.25;9.23;;;;;;;;;;5033946;28;20022;-44
2021/10/14 06:14:34;;;;;;;24.00;9.50;;;;;;;;;;5033296;28;20034;-43
2021/10/14 06:17:01;;;;;;;25.20;8.60;;;;;;;;;;5034081;28;20401;-48
2021/10/14 06:19:28;;;;;;;23.73;8.88;;;;;;;;;;5034186;28;20620;-45
2021/10/14 06:21:55;;;;;;;20.92;8.60;;;;;;;;;;5033690;28;20448;-45
2021/10/14 06:24:22;;;;;;;24.52;9.27;;;;;;;;;;5034086;28;20376;-43
2021/10/14 06:26:49;;;;;;;20.80;9.15;;;;;;;;;;5033234;28;20022;-47
2021/10/14 06:29:16;;;;;;;21.73;9.27;;;;;;;;;;5034268;28;20470;-47
2021/10/14 06:31:43;;;;;;;20.17;8.48;;;;;;;;;;5033740;28;20560;-47
2021/10/14 06:34:10;;;;;;;22.75;9.07;;;;;;;;;;5033770;28;20511;-48
2021/10/14 06:36:37;;;;;;;20.35;8.23;;;;;;;;;;5033484;28;20477;-46
2021/10/14 06:39:04;;;;;;;21.23;7.90;;;;;;;;;;5033968;28;20052;-48
2021/10/14 06:41:31;;;;;;;22.23;8.35;;;;;;;;;;5033217;28;20774;-47
2021/10/14 06:43:59;;;;;;;22.75;9.02;;;;;;;;;;5032739;28;20477;-48
2021/10/14 06:46:26;;;;;;;18.90;8.45;;;;;;;;;;5033291;28;20526;-45
2021/10/14 06:48:53;;;;;;;19.13;8.30;;;;;;;;;;5033507;28;20536;-47
2021/10/14 06:51:20;;;;;;;18.85;7.90;;;;;;;;;;5016006;28;20025;-46
2021/10/14 06:53:47;;;;;;;17.88;8.25;;;;;;;;;;5032904;28;20029;-50
2021/10/14 06:56:14;;;;;;;18.38;7.47;;;;;;;;;;5033236;28;20040;-43
2021/10/14 06:58:41;;;;;;;15.45;7.38;;;;;;;;;;5032605;28;20037;-45
2021/10/14 07:01:08;;;;;;;17.25;6.82;;;;;;;;;;5033435;28;20021;-47
2021/10/14 07:03:35;;;;;;;16.20;7.28;;;;;;;;;;5032771;28;20033;-43
2021/10/14 07:06:02;;;;;;;17.88;7.03;;;;;;;;;;5032989;28;20021;-43
2021/10/14 07:08:29;;;;;;;18.45;7.53;;;;;;;;;;5032419;28;20441;-44
2021/10/14 07:10:56;;;;;;;17.95;7.63;;;;;;;;;;5033161;28;20844;-50
2021/10/14 07:13:23;;;;;;;16.77;7.30;;;;;;;;;;5032851;28;20029;-50
2021/10/14 07:15:51;;;;;;;17.27;7.20;;;;;;;;;;5033157;28;20029;-47
2021/10/14 07:18:18;;;;;;;15.45;7.18;;;;;;;;;;5032493;28;20034;-45
2021/10/14 07:20:45;;;;;;;16.05;7.22;;;;;;;;;;5032871;28;20037;-49
2021/10/14 07:23:13;;;;;;;17.85;7.10;;;;;;;;;;5031396;28;20107;-48
2021/10/14 07:25:41;;;;;;;17.10;7.65;;;;;;;;;;5032164;28;20033;-49
2021/10/14 07:28:09;;;;;;;17.00;7.22;;;;;;;;;;5032435;28;20021;-44
2021/10/14 07:30:36;;;;;;;19.33;7.45;;;;;;;;;;5032934;28;20385;-44
2021/10/14 07:33:03;;;;;;;14.27;6.70;;;;;;;;;;5032865;28;20010;-52
2021/10/14 07:35:31;;;;;;;18.90;7.68;;;;;;;;;;5032294;28;20029;-44
2021/10/14 07:37:59;;;;;;;15.63;6.70;;;;;;;;;;5032822;28;20037;-44
2021/10/14 07:40:26;;;;;;;14.43;7.22;;;;;;;;;;5032468;28;20178;-44
2021/10/14 07:42:54;;;;;;;13.63;6.50;;;;;;;;;;5032539;28;20075;-45
2021/10/14 07:45:21;;;;;;;14.57;6.90;;;;;;;;;;5032201;28;20419;-43
2021/10/14 07:47:48;;;;;;;12.63;5.60;;;;;;;;;;5032530;28;20021;-43
2021/10/14 07:50:16;;;;;;;16.95;6.90;;;;;;;;;;5031876;28;20032;-46
2021/10/14 07:52:43;;;;;;;13.65;6.28;;;;;;;;;;5032150;28;20080;-45
2021/10/14 07:55:11;;;;;;;14.07;6.38;;;;;;;;;;5031685;28;20064;-45
2021/10/14 07:57:38;;;;;;;14.95;5.88;;;;;;;;;;5032241;28;20036;-44
2021/10/14 08:00:08;;;;;;;13.45;5.97;;;;;;;;;;5031909;28;20477;-50
2021/10/14 08:02:36;;;;;;;13.30;5.97;;;;;;;;;;4998592;28;20044;-46
2021/10/14 08:05:03;;;;;;;14.05;6.57;;;;;;;;;;5031312;28;20030;-45
2021/10/14 08:07:30;;;;;;;18.35;6.47;;;;;;;;;;5032302;28;20056;-47
2021/10/14 08:09:57;;;;;;;12.13;5.80;;;;;;;;;;5032060;28;20077;-47
2021/10/14 08:12:24;;;;;;;13.52;6.45;;;;;;;;;;4997760;28;20425;-47
2021/10/14 08:14:51;;;;;;;10.45;5.85;;;;;;;;;;5031989;28;20033;-48
2021/10/14 08:17:18;;;;;;;13.55;5.85;;;;;;;;;;5031432;28;20032;-49
2021/10/14 08:19:46;;;;;;;13.82;6.10;;;;;;;;;;5032117;28;20033;-51
2021/10/14 08:22:13;;;;;;;12.52;6.10;;;;;;;;;;5031529;28;20071;-48
2021/10/14 08:24:40;;;;;;;13.32;5.88;;;;;;;;;;5031787;28;20036;-49
2021/10/14 08:27:07;;;;;;;11.60;5.82;;;;;;;;;;5031004;28;20017;-43
2021/10/14 08:29:34;;;;;;;11.57;5.90;;;;;;;;;;5031742;28;20446;-43
2021/10/14 08:32:02;;;;;;;11.85;5.50;;;;;;;;;;5031250;28;20028;-43
2021/10/14 08:34:29;;;;;;;9.88;5.43;;;;;;;;;;5031626;28;20100;-48
2021/10/14 08:36:57;;;;;;;11.82;5.80;;;;;;;;;;5030361;28;20049;-50
2021/10/14 08:39:24;;;;;;;13.15;5.68;;;;;;;;;;5014071;28;20481;-45
2021/10/14 08:41:51;;;;;;;12.32;5.22;;;;;;;;;;5031048;28;20520;-46
2021/10/14 08:44:28;;;;;;;9.23;5.07;;;;;;;;;;5031429;28;20032;-48
2021/10/14 08:46:56;;;;;;;13.07;5.32;;;;;;;;;;5030727;28;20025;-46
2021/10/14 08:49:23;;;;;;;11.07;5.32;;;;;;;;;;5031494;28;20022;-48
2021/10/14 08:51:51;;;;;;;11.75;5.43;;;;;;;;;;5031064;28;20056;-48
2021/10/14 08:54:18;;;;;;;12.50;5.35;;;;;;;;;;5030927;28;20017;-46
2021/10/14 08:56:47;;;;;;;10.27;5.18;;;;;;;;;;5030967;28;20029;-43
2021/10/14 08:59:18;;;;;;;14.63;5.43;;;;;;;;;;5030990;28;20124;-43
2021/10/14 09:02:04;;;;;;;10.57;5.18;;;;;;;;;;5031353;28;20026;-42
2021/10/14 09:04:32;;;;;;;12.15;5.30;;;;;;;;;;5031180;28;20025;-43
2021/10/14 09:07:14;;;;;;;10.63;4.95;;;;;;;;;;5031841;28;20029;-55
2021/10/14 09:09:42;;;;;;;12.40;5.30;;;;;;;;;;5035766;28;20404;-46
2021/10/14 09:12:10;;;;;;;9.85;5.05;;;;;;;;;;5035962;28;20018;-47
2021/10/14 09:14:54;;;;;;;13.02;5.07;;;;;;;;;;5035428;28;20370;-44
2021/10/14 09:17:41;;;;;;;12.07;5.25;;;;;;;;;;5035169;28;20124;-49
2021/10/14 09:20:28;;;;;;;12.40;5.00;;;;;;;;;;5035611;28;20464;-45
2021/10/14 09:23:17;;;;;;;11.73;5.30;;;;;;;;;;5035376;28;20385;-43
2021/10/14 09:25:45;;;;;;;11.68;4.75;;;;;;;;;;5035488;28;20056;-42
2021/10/14 09:28:14;;;;;;;11.98;5.45;;;;;;;;;;5035345;28;20021;-43
2021/10/14 09:30:46;;;;;;;9.77;4.93;;;;;;;;;;5035563;28;20361;-45
2021/10/14 09:33:35;;;;;;;9.00;4.50;;;;;;;;;;5034346;28;20025;-44
2021/10/14 09:36:20;;;;;;;10.27;4.60;;;;;;;;;;5035607;28;20032;-45
2021/10/14 09:38:48;;;;;;;9.88;4.82;;;;;;;;;;5034746;28;20037;-43
2021/10/14 09:41:17;;;;;;;12.38;4.38;;;;;;;;;;5034784;28;20622;-49
2021/10/14 09:43:45;;;;;;;10.75;4.10;;;;;;;;;;5035058;28;20029;-44
2021/10/14 09:46:31;;;;;;;9.80;4.30;;;;;;;;;;5035373;28;20048;-46
2021/10/14 09:48:58;;;;;;;11.25;4.43;;;;;;;;;;5034902;28;20443;-43
2021/10/14 09:51:25;;;;;;;8.75;4.32;;;;;;;;;;5034706;28;20473;-43
2021/10/14 09:53:52;;;;;;;7.95;4.47;;;;;;;;;;5034794;28;20428;-43
2021/10/14 09:56:20;;;;;;;7.53;3.97;;;;;;;;;;5034915;28;20396;-47
2021/10/14 09:58:47;;;;;;;9.27;4.00;;;;;;;;;;5033920;28;20080;-47
2021/10/14 10:01:14;;;;;;;8.60;3.58;;;;;;;;;;5034642;28;20677;-47
2021/10/14 10:03:41;;;;;;;9.35;4.30;;;;;;;;;;5034602;28;20026;-47
2021/10/14 10:06:09;;;;;;;7.30;3.60;;;;;;;;;;5033898;28;20356;-46
2021/10/14 10:08:38;;;;;;;8.10;3.90;;;;;;;;;;5033910;28;20103;-52
2021/10/14 10:11:06;;;;;;;8.88;4.07;;;;;;;;;;5033544;28;20366;-46
2021/10/14 10:13:34;;;;;;;8.65;3.75;;;;;;;;;;5033909;28;20056;-47
2021/10/14 10:16:18;;;;;;;7.90;3.75;;;;;;;;;;5033632;28;20191;-46
2021/10/14 10:18:52;;;;;;;9.55;4.25;;;;;;;;;;5032730;28;20096;-43
2021/10/14 10:21:31;;;;;;;10.02;4.10;;;;;;;;;;5033553;28;20101;-45
2021/10/14 10:23:58;;;;;;;7.57;3.85;;;;;;;;;;5033695;28;20557;-47
2021/10/14 10:29:01;;;;;;;8.20;3.97;;;;;;;;;;5033673;28;20481;-46
2021/10/14 10:31:59;;;;;;;7.85;3.95;;;;;;;;;;5033294;28;20393;-47
2021/10/14 10:34:39;;;;;;;5.72;3.10;;;;;;;;;;5018254;28;20464;-49
2021/10/14 10:37:15;;;;;;;6.70;3.40;;;;;;;;;;5033153;28;20029;-50
2021/10/14 10:40:04;;;;;;;7.53;4.03;;;;;;;;;;5033573;28;20038;-52
2021/10/14 10:42:43;;;;;;;6.82;3.78;;;;;;;;;;5033363;28;20543;-46
2021/10/14 10:45:14;;;;;;;6.60;2.20;;;;;;;;;;5033639;28;20032;-46
2021/10/14 10:47:45;;;;;;;8.65;2.53;;;;;;;;;;5030637;28;20121;-43
2021/10/14 10:50:17;;;;;;;5.27;2.40;;;;;;;;;;5020159;28;20021;-50
2021/10/14 10:52:46;;;;;;;3.42;2.38;;;;;;;;;;5030600;28;20022;-45
2021/10/14 10:55:13;;;;;;;7.28;2.15;;;;;;;;;;5031937;28;20053;-47
2021/10/14 10:57:46;;;;;;;5.70;2.40;;;;;;;;;;5031541;28;20476;-47
2021/10/14 11:00:13;;;;;;;6.22;2.55;;;;;;;;;;5032872;28;20041;-46
2021/10/14 11:02:40;;;;;;;4.95;2.33;;;;;;;;;;5031970;28;20036;-46
2021/10/14 11:05:07;;;;;;;7.13;2.28;;;;;;;;;;5031986;28;20122;-44
2021/10/14 11:07:34;;;;;;;5.85;2.42;;;;;;;;;;5030790;28;20033;-50
2021/10/14 11:10:04;;;;;;;7.15;2.80;;;;;;;;;;5030203;28;20080;-49
2021/10/14 11:12:32;;;;;;;9.45;2.35;;;;;;;;;;5031598;28;20032;-48
2021/10/14 11:14:59;;;;;;;4.90;2.30;;;;;;;;;;5030280;28;20029;-50
2021/10/14 11:17:26;;;;;;;6.28;2.17;;;;;;;;;;5031355;28;20033;-50
2021/10/14 11:20:13;;;;;;;5.78;2.08;;;;;;;;;;5029423;28;20092;-47
2021/10/14 11:22:48;;;;;;;5.03;2.30;;;;;;;;;;5030058;28;20025;-45
2021/10/14 11:25:15;;;;;;;5.50;1.92;;;;;;;;;;5031677;28;20034;-51
2021/10/14 11:27:45;;;;;;;5.60;2.22;;;;;;;;;;5031280;28;20444;-49
2021/10/14 11:30:21;;;;;;;6.43;2.20;;;;;;;;;;5028788;28;20074;-42
2021/10/14 11:32:57;;;;;;;5.15;1.85;;;;;;;;;;5030814;28;20600;-50
2021/10/14 11:35:27;;;;;;;7.85;2.40;;;;;;;;;;5030170;28;20032;-47
2021/10/14 11:38:06;;;;;;;6.35;1.75;;;;;;;;;;5030953;28;20527;-50
2021/10/14 11:40:34;;;;;;;4.75;1.80;;;;;;;;;;5028983;28;20036;-49
2021/10/14 11:43:01;;;;;;;4.40;1.92;;;;;;;;;;5030395;28;20025;-45
2021/10/14 11:45:29;;;;;;;6.22;2.25;;;;;;;;;;5030217;28;20025;-45
2021/10/14 11:47:56;;;;;;;4.75;1.73;;;;;;;;;;5031269;28;20029;-45
2021/10/14 11:50:32;;;;;;;5.65;1.90;;;;;;;;;;5030332;28;20785;-45
2021/10/14 11:53:07;;;;;;;5.45;2.17;;;;;;;;;;5029579;28;20081;-56
2021/10/14 11:55:34;;;;;;;6.20;2.40;;;;;;;;;;5014131;28;20448;-44
2021/10/14 11:58:03;;;;;;;6.95;2.10;;;;;;;;;;5031156;28;20114;-46
2021/10/14 12:00:31;;;;;;;5.30;2.30;;;;;;;;;;5030987;28;20029;-47
2021/10/14 12:02:59;;;;;;;7.68;2.10;;;;;;;;;;5030438;28;20017;-44
2021/10/14 12:05:26;;;;;;;6.93;2.22;;;;;;;;;;5030630;28;20029;-48
2021/10/14 12:07:56;;;;;;;5.25;2.20;;;;;;;;;;5030996;28;20014;-46
2021/10/14 12:10:34;;;;;;;6.40;1.98;;;;;;;;;;5030858;28;20054;-43
2021/10/14 12:13:05;;;;;;;6.60;1.95;;;;;;;;;;5030144;28;20057;-43
2021/10/14 12:15:33;;;;;;;5.55;2.00;;;;;;;;;;5030809;28;20017;-42
2021/10/14 12:18:00;;;;;;;5.18;2.25;;;;;;;;;;5030417;28;20088;-47
2021/10/14 12:20:27;;;;;;;6.45;1.90;;;;;;;;;;5031466;28;20025;-47
2021/10/14 12:22:56;;;;;;;5.22;1.80;;;;;;;;;;5030899;28;20079;-46
2021/10/14 12:25:25;;;;;;;5.07;2.15;;;;;;;;;;5031670;28;20017;-49
2021/10/14 12:27:57;;;;;;;6.40;2.03;;;;;;;;;;5030780;28;20052;-47
2021/10/14 12:30:30;;;;;;;3.73;1.73;;;;;;;;;;5031687;28;20030;-51
2021/10/14 12:33:12;;;;;;;5.30;1.92;;;;;;;;;;5030941;28;20801;-45
2021/10/14 12:35:41;;;;;;;6.93;2.28;;;;;;;;;;5028091;28;20033;-48
2021/10/14 12:38:09;;;;;;;2.85;1.65;;;;;;;;;;5029241;28;20029;-46
2021/10/14 12:40:42;;;;;;;5.93;1.77;;;;;;;;;;5030680;28;20026;-47
2021/10/14 12:43:19;;;;;;;5.28;1.77;;;;;;;;;;5029628;28;20132;-51
2021/10/14 12:53:45;;;;;;;3.83;1.90;;;;;;;;;;5031180;28;20040;-52
2021/10/14 12:56:13;;;;;;;4.00;1.93;;;;;;;;;;5030603;28;20069;-49
2021/10/14 12:58:40;;;;;;;11.98;2.22;;;;;;;;;;5030658;28;20087;-48
2021/10/14 13:01:12;;;;;;;8.23;2.10;;;;;;;;;;5029737;28;20604;-49
2021/10/14 13:03:39;;;;;;;9.32;2.22;;;;;;;;;;5027406;28;20543;-45
2021/10/14 13:06:07;;;;;;;9.38;2.20;;;;;;;;;;5036998;28;20025;-41
2021/10/14 13:08:42;;;;;;;7.63;1.95;;;;;;;;;;5030293;28;20064;-45
2021/10/14 13:11:13;;;;;;;10.23;2.10;;;;;;;;;;5029004;28;20041;-42
2021/10/14 13:13:41;;;;;;;6.47;2.20;;;;;;;;;;5030278;28;20428;-44
2021/10/14 13:16:09;;;;;;;7.22;2.20;;;;;;;;;;5029721;28;20096;-46
2021/10/14 13:18:37;;;;;;;5.68;2.08;;;;;;;;;;5030217;28;20025;-48
2021/10/14 13:21:05;;;;;;;11.55;2.20;;;;;;;;;;5025485;28;20170;-45
2021/10/14 13:23:33;;;;;;;6.93;2.13;;;;;;;;;;5030716;28;20022;-44
2021/10/14 13:26:00;;;;;;;11.55;2.38;;;;;;;;;;5020789;28;20377;-48
2021/10/14 13:28:32;;;;;;;8.00;2.00;;;;;;;;;;5024175;28;20396;-48
2021/10/14 13:31:00;;;;;;;4.00;2.22;;;;;;;;;;5025590;28;20017;-50
2021/10/14 13:33:29;;;;;;;6.68;1.80;;;;;;;;;;5022484;28;20442;-51
2021/10/14 13:36:04;;;;;;;6.07;1.80;;;;;;;;;;5026573;28;20432;-44
2021/10/14 13:38:33;;;;;;;7.88;2.33;;;;;;;;;;5027509;28;20037;-43
2021/10/14 13:41:03;;;;;;;6.38;1.85;;;;;;;;;;5027841;28;20065;-45
2021/10/14 13:43:36;;;;;;;8.95;1.70;;;;;;;;;;5025335;28;20400;-49
2021/10/14 13:46:03;;;;;;;8.60;1.98;;;;;;;;;;5020786;28;20521;-43
2021/10/14 13:48:30;;;;;;;3.78;1.80;;;;;;;;;;5022398;28;20075;-44
2021/10/14 13:50:58;;;;;;;9.02;1.77;;;;;;;;;;5026580;28;20083;-46
2021/10/14 13:53:26;;;;;;;6.13;1.75;;;;;;;;;;5025177;28;20642;-45
2021/10/14 13:55:53;;;;;;;6.63;1.70;;;;;;;;;;5030200;28;20384;-53
2021/10/14 13:58:21;;;;;;;7.63;1.80;;;;;;;;;;5029950;28;20571;-43
2021/10/14 14:00:48;;;;;;;7.57;1.60;;;;;;;;;;5029481;28;20426;-44
2021/10/14 14:03:16;;;;;;;8.63;1.80;;;;;;;;;;5028171;28;20037;-49
2021/10/14 14:05:46;;;;;;;8.80;1.80;;;;;;;;;;5017429;28;20022;-47
2021/10/14 14:08:14;;;;;;;7.95;2.00;;;;;;;;;;5028068;28;20508;-48
2021/10/14 14:10:42;;;;;;;12.00;2.05;;;;;;;;;;5028785;28;20044;-49
2021/10/14 14:13:09;;;;;;;11.10;2.13;;;;;;;;;;5026784;28;20021;-46
2021/10/14 14:15:42;;;;;;;8.50;1.63;;;;;;;;;;5024346;28;20436;-43
2021/10/14 14:18:09;;;;;;;8.07;2.03;;;;;;;;;;5026153;28;20037;-46
2021/10/14 14:20:38;;;;;;;7.70;1.42;;;;;;;;;;5027901;28;20036;-45
2021/10/14 14:23:05;;;;;;;6.38;1.40;;;;;;;;;;5030908;28;20032;-45
2021/10/14 14:25:33;;;;;;;9.38;2.30;;;;;;;;;;5007399;28;20393;-43
2021/10/14 14:28:00;;;;;;;15.30;1.70;;;;;;;;;;5023896;28;20038;-48
2021/10/14 14:30:27;;;;;;;7.90;1.98;;;;;;;;;;5027814;28;20080;-46
2021/10/14 14:32:54;;;;;;;5.93;1.60;;;;;;;;;;5026999;28;20026;-49
2021/10/14 14:35:21;;;;;;;8.35;1.90;;;;;;;;;;5030442;28;20381;-48
2021/10/14 14:37:48;;;;;;;10.23;1.50;;;;;;;;;;5026785;28;20610;-49
2021/10/14 14:40:16;;;;;;;5.97;1.48;;;;;;;;;;5028867;28;20425;-44
2021/10/14 14:42:43;;;;;;;5.60;1.95;;;;;;;;;;5026665;28;20021;-48
2021/10/14 14:45:10;;;;;;;6.93;1.58;;;;;;;;;;5026572;28;20469;-45
2021/10/14 14:47:43;;;;;;;5.82;1.48;;;;;;;;;;5028739;28;20552;-47
2021/10/14 14:52:53;;;;;;;4.57;1.83;;;;;;;;;;5030533;28;20467;-45